Time;durP1;ratioP1;P1;durP2;ratioP2;P2;SDS_P1;SDS_P2;PMS_P1;PMS_P2;Temp;Humidity;BMP_temperature;BMP_pressure;BME280_temperature;BME280_humidity;BME280_pressure;Samples;Min_cycle;Max_cycle;Signal;HPM_P1;HPM_P2
2022/08/19 00:02:22;;;;;;;;;;;;;;;;;;5006355;28;19932;-63
2022/08/19 00:04:52;;;;;;;;;;;;;;;;;;5006978;28;20310;-63
2022/08/19 00:07:19;;;;;;;;;;;;;;;;;;5005391;28;19925;-63
2022/08/19 00:09:46;;;;;;;;;;;;;;;;;;5007567;28;20024;-63
2022/08/19 00:12:13;;;;;;;;;;;;;;;;;;5008137;28;19925;-63
2022/08/19 00:14:40;;;;;;;;;;;;;;;;;;4997615;28;20067;-62
2022/08/19 00:17:07;;;;;;;;;;;;;;;;;;5008535;28;19947;-63
2022/08/19 00:19:34;;;;;;;;;;;;;;;;;;5006764;28;20383;-62
2022/08/19 00:22:02;;;;;;;;;;;;;;;;;;5007121;28;20411;-62
2022/08/19 00:24:29;;;;;;;;;;;;;;;;;;4994442;28;19933;-62
2022/08/19 00:26:56;;;;;;;;;;;;;;;;;;5007123;28;19926;-62
2022/08/19 00:29:23;;;;;;;;;;;;;;;;;;5007768;28;19933;-62
2022/08/19 00:31:52;;;;;;;;;;;;;;;;;;5008212;28;20012;-62
2022/08/19 00:34:19;;;;;;;;;;;;;;;;;;5007725;28;19925;-62
2022/08/19 00:36:47;;;;;;;;;;;;;;;;;;5006761;28;19929;-62
2022/08/19 00:39:14;;;;;;;;;;;;;;;;;;5007931;28;19925;-62
2022/08/19 00:41:41;;;;;;;;;;;;;;;;;;5008744;28;20013;-62
2022/08/19 00:44:07;;;;;;;;;;;;;;;;;;5008399;28;19930;-62
2022/08/19 00:46:36;;;;;;;;;;;;;;;;;;5008427;28;20013;-63
2022/08/19 00:49:03;;;;;;;;;;;;;;;;;;5002675;28;19925;-62
2022/08/19 00:51:30;;;;;;;;;;;;;;;;;;5007733;28;20008;-63
2022/08/19 00:53:57;;;;;;;;;;;;;;;;;;5007912;28;20387;-62
2022/08/19 00:56:26;;;;;;;;;;;;;;;;;;5005277;28;19960;-62
2022/08/19 00:58:53;;;;;;;;;;;;;;;;;;5005110;28;19930;-62
2022/08/19 01:01:19;;;;;;;;;;;;;;;;;;5007472;28;19925;-62
2022/08/19 01:03:46;;;;;;;;;;;;;;;;;;5006452;28;20012;-62
2022/08/19 01:06:14;;;;;;;;;;;;;;;;;;5004587;28;19925;-62
2022/08/19 01:08:41;;;;;;;;;;;;;;;;;;5002632;28;19926;-62
2022/08/19 01:11:08;;;;;;;;;;;;;;;;;;4999020;28;19938;-62
2022/08/19 01:13:35;;;;;;;;;;;;;;;;;;5002224;28;19933;-63
2022/08/19 01:16:02;;;;;;;;;;;;;;;;;;5004064;28;19930;-63
2022/08/19 01:18:29;;;;;;;;;;;;;;;;;;5005239;28;19973;-62
2022/08/19 01:20:56;;;;;;;;;;;;;;;;;;5006055;28;19940;-62
2022/08/19 01:23:42;;;;;;;;;;;;;;;;;;5002734;28;19932;-62
2022/08/19 01:26:11;;;;;;;;;;;17.80;99.90;;;;;;5000470;28;19925;-62
2022/08/19 01:28:38;;;;;;;;;;;17.80;99.90;;;;;;5006431;28;20017;-62
2022/08/19 01:31:05;;;;;;;;;;;17.70;99.90;;;;;;5007695;28;19941;-62
2022/08/19 01:33:32;;;;;;;;;;;17.70;99.90;;;;;;5003503;28;20389;-62
2022/08/19 01:36:04;;;;;;;;;;;17.60;99.90;;;;;;5006574;28;20053;-62
2022/08/19 01:38:31;;;;;;;;;;;17.60;99.90;;;;;;5005532;28;20047;-62
2022/08/19 01:40:58;;;;;;;;;;;17.50;99.90;;;;;;5007115;28;20024;-62
2022/08/19 01:43:26;;;;;;;;;;;17.50;99.90;;;;;;5000388;28;19930;-62
2022/08/19 01:45:53;;;;;;;;;;;17.50;99.90;;;;;;5005880;28;19936;-62
2022/08/19 01:48:20;;;;;;;;;;;17.40;99.90;;;;;;5003986;28;19925;-62
2022/08/19 01:50:47;;;;;;;;;;;17.40;99.90;;;;;;5006197;28;19932;-61
2022/08/19 01:53:14;;;;;;;;;;;17.40;99.90;;;;;;5004307;28;20384;-62
2022/08/19 01:55:42;;;;;;;;;;;17.30;99.90;;;;;;5007957;28;19932;-62
2022/08/19 01:58:11;;;;;;;;;;;17.30;99.90;;;;;;5006163;28;20352;-62
2022/08/19 02:00:40;;;;;;;;;;;17.30;99.90;;;;;;5008095;28;19976;-62
2022/08/19 02:03:09;;;;;;;;;;;17.20;99.90;;;;;;5005716;28;20028;-62
2022/08/19 02:05:35;;;;;;;;;;;17.10;99.90;;;;;;5006813;28;19960;-61
2022/08/19 02:08:02;;;;;;;;;;;17.10;99.90;;;;;;4992938;28;20021;-61
2022/08/19 02:10:29;;;;;;;;;;;17.10;99.90;;;;;;5007399;28;19961;-61
2022/08/19 02:12:55;;;;;;;;;;;17.20;99.90;;;;;;5008703;28;20127;-61
2022/08/19 02:15:22;;;;;;;;;;;17.20;99.90;;;;;;5008281;28;20016;-62
2022/08/19 02:17:50;;;;;;;;;;;17.20;99.90;;;;;;5008207;28;20290;-62
2022/08/19 02:20:17;;;;;;;;;;;17.20;99.90;;;;;;5004810;28;19925;-61
2022/08/19 02:22:45;;;;;;;;;;;17.10;99.90;;;;;;5009692;28;19937;-62
2022/08/19 02:25:12;;;;;;;;;;;17.10;99.90;;;;;;5010178;28;19976;-62
2022/08/19 02:27:39;;;;;;;;;;;17.10;99.90;;;;;;5003776;28;20463;-62
2022/08/19 02:30:07;;;;;;;;;;;17.10;99.90;;;;;;5008889;28;19926;-62
2022/08/19 02:32:34;;;;;;;;;;;17.10;99.90;;;;;;5009060;28;19932;-62
2022/08/19 02:35:03;;;;;;;;;;;17.10;99.90;;;;;;5004562;28;20017;-62
2022/08/19 02:40:14;;;;;;;;;;;17.10;99.90;;;;;;5005009;28;20402;-62
2022/08/19 02:42:42;;;;;;;;;;;17.10;99.90;;;;;;5004642;28;19941;-62
2022/08/19 02:45:09;;;;;;;;;;;17.10;99.90;;;;;;5010603;28;19941;-62
2022/08/19 02:47:36;;;;;;;;;;;17.10;99.90;;;;;;5009276;28;19937;-61
2022/08/19 02:50:05;;;;;;;;;;;17.00;99.90;;;;;;5009051;28;20403;-61
2022/08/19 02:52:32;;;;;;;;;;;17.00;99.90;;;;;;5006490;28;19980;-61
2022/08/19 02:54:59;;;;;;;;;;;17.00;99.90;;;;;;5007414;28;19933;-61
2022/08/19 02:57:26;;;;;;;;;;;17.00;99.90;;;;;;5009587;28;19925;-61
2022/08/19 02:59:53;;;;;;;;;;;17.00;99.90;;;;;;5007379;28;19929;-62
2022/08/19 03:02:20;;;;;;;;;;;16.90;99.90;;;;;;5007619;28;19925;-61
2022/08/19 03:04:46;;;;;;;;;;;16.90;99.90;;;;;;5010619;28;20001;-61
2022/08/19 03:07:15;;;;;;;;;;;16.90;99.90;;;;;;5009816;28;19925;-62
2022/08/19 03:09:42;;;;;;;;;;;16.80;99.90;;;;;;5008064;28;19931;-62
2022/08/19 03:12:09;;;;;;;;;;;16.80;99.90;;;;;;5009175;28;20275;-61
2022/08/19 03:14:36;;;;;;;;;;;16.80;99.90;;;;;;5006940;28;20025;-62
2022/08/19 03:17:04;;;;;;;;;;;16.80;99.90;;;;;;5008126;28;19998;-62
2022/08/19 03:19:31;;;;;;;;;;;16.70;99.90;;;;;;5009590;28;19926;-62
2022/08/19 03:21:58;;;;;;;;;;;16.70;99.90;;;;;;5009240;28;19926;-62
2022/08/19 03:24:26;;;;;;;;;;;16.70;99.90;;;;;;5006123;28;19932;-62
2022/08/19 03:26:57;;;;;;;;;;;16.70;99.90;;;;;;5009887;28;20016;-62
2022/08/19 03:29:25;;;;;;;;;;;16.60;99.90;;;;;;5007297;28;19934;-62
2022/08/19 03:31:52;;;;;;;;;;;16.60;99.90;;;;;;5008691;28;20427;-62
2022/08/19 03:34:20;;;;;;;;;;;16.60;99.90;;;;;;5006879;28;20319;-62
2022/08/19 03:36:47;;;;;;;;;;;16.60;99.90;;;;;;5006526;28;19978;-62
2022/08/19 03:39:14;;;;;;;;;;;16.60;99.90;;;;;;5008387;28;20024;-62
2022/08/19 03:41:44;;;;;;;;;;;16.60;99.90;;;;;;5009635;28;20024;-62
2022/08/19 03:44:10;;;;;;;;;;;16.60;99.90;;;;;;5009235;28;20036;-61
2022/08/19 03:46:38;;;;;;;;;;;16.50;99.90;;;;;;5007668;28;20061;-62
2022/08/19 03:49:07;;;;;;;;;;;16.50;99.90;;;;;;5007659;28;20010;-61
2022/08/19 03:51:34;;;;;;;;;;;16.50;99.90;;;;;;5005886;28;19974;-61
2022/08/19 03:54:02;;;;;;;;;;;16.50;99.90;;;;;;5005507;28;19957;-62
2022/08/19 03:56:29;;;;;;;;;;;16.50;99.90;;;;;;5009054;28;20029;-61
2022/08/19 03:58:58;;;;;;;;;;;16.50;99.90;;;;;;5008512;28;20017;-61
2022/08/19 04:01:26;;;;;;;;;;;16.40;99.90;;;;;;5007120;28;20024;-62
2022/08/19 04:03:53;;;;;;;;;;;16.40;99.90;;;;;;5004744;28;20364;-62
2022/08/19 04:06:21;;;;;;;;;;;16.40;99.90;;;;;;5007274;28;20343;-62
2022/08/19 04:08:49;;;;;;;;;;;16.30;99.90;;;;;;5007500;28;19937;-62
2022/08/19 04:11:17;;;;;;;;;;;16.30;99.90;;;;;;5008260;28;19936;-62
2022/08/19 04:13:44;;;;;;;;;;;16.30;99.90;;;;;;5007322;28;20037;-62
2022/08/19 04:16:12;;;;;;;;;;;16.30;99.90;;;;;;5008273;28;20075;-61
2022/08/19 04:18:39;;;;;;;;;;;16.30;99.90;;;;;;5007072;28;19968;-62
2022/08/19 04:21:07;;;;;;;;;;;16.30;99.90;;;;;;5007991;28;20073;-62
2022/08/19 04:23:35;;;;;;;;;;;16.30;99.90;;;;;;5004866;28;20008;-62
2022/08/19 04:26:02;;;;;;;;;;;16.30;99.90;;;;;;5008878;28;20295;-62
2022/08/19 04:28:29;;;;;;;;;;;16.20;99.90;;;;;;5007741;28;19929;-62
2022/08/19 04:30:57;;;;;;;;;;;16.20;99.90;;;;;;5007718;28;19925;-63
2022/08/19 04:33:25;;;;;;;;;;;16.20;99.90;;;;;;5005244;28;20012;-63
2022/08/19 04:35:53;;;;;;;;;;;16.20;99.90;;;;;;5007321;28;20400;-63
2022/08/19 04:38:22;;;;;;;;;;;16.20;99.90;;;;;;5006727;28;20394;-63
2022/08/19 04:43:35;;;;;;;;;;;16.20;99.90;;;;;;5006362;28;19932;-62
2022/08/19 04:46:05;;;;;;;;;;;16.20;99.90;;;;;;5006602;28;20448;-63
2022/08/19 04:48:33;;;;;;;;;;;16.20;99.90;;;;;;5006199;28;20009;-63
2022/08/19 04:50:59;;;;;;;;;;;16.20;99.90;;;;;;5007946;28;20029;-63
2022/08/19 04:53:28;;;;;;;;;;;16.10;99.90;;;;;;5005551;28;20019;-62
2022/08/19 04:55:55;;;;;;;;;;;16.10;99.90;;;;;;4997213;28;20292;-63
2022/08/19 04:58:21;;;;;;;;;;;16.10;99.90;;;;;;5005666;28;19953;-62
2022/08/19 05:00:48;;;;;;;;;;;16.10;99.90;;;;;;5003334;28;20028;-62
2022/08/19 05:03:16;;;;;;;;;;;16.10;99.90;;;;;;5005253;28;19955;-62
2022/08/19 05:05:45;;;;;;;;;;;16.10;99.90;;;;;;5006877;28;20569;-63
2022/08/19 05:08:12;;;;;;;;;;;16.10;99.90;;;;;;5005064;28;19926;-63
2022/08/19 05:10:40;;;;;;;;;;;16.10;99.90;;;;;;5006588;28;20348;-63
2022/08/19 05:13:09;;;;;;;;;;;16.10;99.90;;;;;;5002660;28;19929;-63
2022/08/19 05:15:36;;;;;;;;;;;16.10;99.90;;;;;;5005012;28;19925;-62
2022/08/19 05:23:32;;;;;;;;;;;16.30;99.90;;;;;;5002597;28;20047;-62
2022/08/19 05:25:59;;;;;;;;;;;16.30;99.90;;;;;;5002432;28;20299;-62
2022/08/19 05:28:26;;;;;;;;;;;16.40;99.90;;;;;;5005991;28;19965;-62
2022/08/19 05:30:55;;;;;;;;;;;16.60;99.90;;;;;;5005977;28;20367;-61
2022/08/19 05:33:21;;;;;;;;;;;16.90;99.90;;;;;;5006436;28;19970;-61
2022/08/19 05:35:50;;;;;;;;;;;17.00;99.90;;;;;;5007548;28;20399;-62
2022/08/19 05:38:17;;;;;;;;;;;17.10;99.90;;;;;;5004765;28;19926;-62
2022/08/19 05:40:49;;;;;;;;;;;17.20;99.90;;;;;;4998698;28;20374;-62
2022/08/19 05:43:16;;;;;;;;;;;17.50;99.90;;;;;;5003508;28;19926;-62
2022/08/19 05:45:43;;;;;;;;;;;17.80;99.90;;;;;;5006415;28;19925;-62
2022/08/19 05:48:11;;;;;;;;;;;18.00;99.90;;;;;;5005553;28;19968;-62
2022/08/19 05:50:38;;;;;;;;;;;18.10;99.90;;;;;;5001010;28;19932;-62
2022/08/19 05:53:06;;;;;;;;;;;18.20;99.90;;;;;;4998066;28;19934;-62
2022/08/19 05:55:33;;;;;;;;;;;18.20;99.90;;;;;;4999742;28;20383;-62
2022/08/19 05:58:01;;;;;;;;;;;18.30;99.90;;;;;;5004242;28;20008;-62
2022/08/19 06:00:30;;;;;;;;;;;18.40;99.90;;;;;;4998497;28;19940;-62
2022/08/19 06:02:59;;;;;;;;;;;18.50;99.90;;;;;;5004306;28;20020;-63
2022/08/19 06:05:26;;;;;;;;;;;18.70;99.90;;;;;;5023031;28;19969;-64
2022/08/19 06:07:53;;;;;;;;;;;18.80;99.90;;;;;;5021572;28;19940;-63
2022/08/19 06:10:21;;;;;;;;;;;18.90;99.90;;;;;;5004498;28;20295;-62
2022/08/19 06:12:48;;;;;;;;;;;19.10;99.90;;;;;;5005037;28;19926;-62
2022/08/19 06:15:14;;;;;;;;;;;19.10;99.90;;;;;;5003870;28;19932;-62
2022/08/19 06:17:44;;;;;;;;;;;19.30;99.90;;;;;;4996767;28;19940;-62
2022/08/19 06:20:13;;;;;;;;;;;19.40;99.90;;;;;;5000348;28;19926;-62
2022/08/19 06:22:40;;;;;;;;;;;19.80;99.90;;;;;;5002462;28;19940;-62
2022/08/19 06:25:08;;;;;;;;;;;19.70;99.90;;;;;;5003854;28;19980;-62
2022/08/19 06:27:36;;;;;;;;;;;19.80;99.90;;;;;;5004679;28;19926;-61
2022/08/19 06:30:03;;;;;;;;;;;19.70;99.90;;;;;;5005717;28;19933;-61
2022/08/19 06:32:30;;;;;;;;;;;19.70;99.90;;;;;;4997405;28;19936;-61
2022/08/19 06:34:57;;;;;;;;;;;19.70;99.90;;;;;;5007785;28;20012;-62
2022/08/19 06:37:23;;;;;;;;;;;19.60;99.90;;;;;;5004028;28;19925;-62
2022/08/19 06:39:50;;;;;;;;;;;19.60;99.90;;;;;;4998135;28;19930;-62
2022/08/19 06:42:18;;;;;;;;;;;19.70;99.90;;;;;;5004129;28;20008;-62
2022/08/19 06:44:48;;;;;;;;;;;19.70;99.90;;;;;;5006374;28;20361;-63
2022/08/19 06:47:16;;;;;;;;;;;19.60;99.90;;;;;;5002585;28;19969;-63
2022/08/19 06:49:43;;;;;;;;;;;19.80;99.90;;;;;;5006096;28;19925;-62
2022/08/19 06:52:11;;;;;;;;;;;19.80;99.90;;;;;;5004645;28;20380;-62
2022/08/19 06:54:38;;;;;;;;;;;19.80;99.90;;;;;;4998551;28;20012;-61
2022/08/19 06:57:06;;;;;;;;;;;19.60;99.90;;;;;;5006147;28;19925;-61
2022/08/19 06:59:33;;;;;;;;;;;19.40;99.90;;;;;;5007271;28;20375;-60
2022/08/19 07:02:04;;;;;;;;;;;19.10;99.90;;;;;;4997321;28;19933;-61
2022/08/19 07:04:32;;;;;;;;;;;18.90;99.90;;;;;;4999760;28;19980;-60
2022/08/19 07:06:59;;;;;;;;;;;18.80;99.90;;;;;;4999915;28;19926;-60
2022/08/19 07:09:26;;;;;;;;;;;18.70;99.90;;;;;;4995036;28;20441;-61
2022/08/19 07:11:54;;;;;;;;;;;18.80;99.90;;;;;;4997464;28;20016;-61
2022/08/19 07:14:21;;;;;;;;;;;18.90;99.90;;;;;;5001306;28;19930;-61
2022/08/19 07:16:49;;;;;;;;;;;19.10;99.90;;;;;;5004565;28;20088;-61
2022/08/19 07:19:17;;;;;;;;;;;19.20;99.90;;;;;;5004535;28;20028;-62
2022/08/19 07:21:44;;;;;;;;;;;19.30;99.90;;;;;;5004800;28;19976;-61
2022/08/19 07:24:12;;;;;;;;;;;19.40;99.90;;;;;;5000405;28;20276;-63
2022/08/19 07:26:39;;;;;;;;;;;19.40;99.90;;;;;;5003241;28;20232;-62
2022/08/19 07:29:06;;;;;;;;;;;19.60;99.90;;;;;;5003706;28;19933;-61
2022/08/19 07:31:35;;;;;;;;;;;19.60;99.90;;;;;;5001018;28;20041;-61
2022/08/19 07:34:03;;;;;;;;;;;19.80;99.90;;;;;;5000981;28;20346;-62
2022/08/19 07:36:31;;;;;;;;;;;20.00;99.90;;;;;;5004049;28;19932;-61
2022/08/19 07:38:59;;;;;;;;;;;20.20;99.90;;;;;;5003333;28;19933;-62
2022/08/19 07:41:28;;;;;;;;;;;20.20;99.90;;;;;;4999543;28;19934;-61
2022/08/19 07:43:55;;;;;;;;;;;20.20;99.90;;;;;;5003585;28;19925;-61
2022/08/19 07:46:22;;;;;;;;;;;20.40;99.90;;;;;;5001068;28;20016;-61
2022/08/19 07:48:50;;;;;;;;;;;20.80;99.90;;;;;;5002556;28;19930;-61
2022/08/19 07:51:18;;;;;;;;;;;21.00;99.90;;;;;;5005311;28;19934;-62
2022/08/19 07:53:47;;;;;;;;;;;22.10;99.90;;;;;;5000172;28;20269;-62
2022/08/19 07:56:14;;;;;;;;;;;24.20;99.90;;;;;;4998457;28;19982;-62
2022/08/19 07:58:42;;;;;;;;;;;24.80;99.90;;;;;;5003945;28;19925;-62
2022/08/19 08:01:11;;;;;;;;;;;24.10;99.90;;;;;;5003794;28;19978;-64
2022/08/19 08:09:20;;;;;;;;;;;22.00;99.90;;;;;;5002933;28;20058;-62
2022/08/19 08:11:49;;;;;;;;;;;21.90;99.90;;;;;;5001596;28;19933;-62
2022/08/19 08:14:17;;;;;;;;;;;21.90;99.90;;;;;;4995746;28;19940;-62
2022/08/19 08:16:45;;;;;;;;;;;21.50;99.90;;;;;;4994225;28;20330;-62
2022/08/19 08:19:12;;;;;;;;;;;21.20;99.90;;;;;;4994141;28;19926;-62
2022/08/19 08:21:39;;;;;;;;;;;21.10;99.90;;;;;;5006430;28;19925;-62
2022/08/19 08:24:06;;;;;;;;;;;21.00;99.90;;;;;;4999630;28;20392;-62
2022/08/19 08:26:34;;;;;;;;;;;21.20;99.90;;;;;;5006137;28;19980;-63
2022/08/19 08:29:01;;;;;;;;;;;21.30;99.90;;;;;;5001502;28;20013;-62
2022/08/19 08:31:28;;;;;;;;;;;21.30;99.90;;;;;;5002426;28;19926;-61
2022/08/19 08:33:54;;;;;;;;;;;21.40;99.90;;;;;;4998492;28;19978;-63
2022/08/19 08:36:21;;;;;;;;;;;21.40;99.90;;;;;;5006435;28;20024;-62
2022/08/19 08:38:48;;;;;;;;;;;21.30;99.90;;;;;;5001178;28;19979;-62
2022/08/19 08:41:20;;;;;;;;;;;21.30;99.90;;;;;;5006044;28;19926;-62
2022/08/19 08:43:50;;;;;;;;;;;21.40;99.90;;;;;;4996663;28;19926;-62
2022/08/19 08:46:19;;;;;;;;;;;21.40;99.90;;;;;;4998960;28;19925;-62
2022/08/19 08:48:49;;;;;;;;;;;21.50;99.90;;;;;;5004139;28;19932;-62
2022/08/19 08:51:19;;;;;;;;;;;21.50;99.90;;;;;;5007063;28;20013;-63
2022/08/19 08:53:47;;;;;;;;;;;21.60;99.90;;;;;;4998063;28;19948;-62
2022/08/19 08:56:14;;;;;;;;;;;21.40;99.90;;;;;;5003839;28;20032;-62
2022/08/19 08:58:45;;;;;;;;;;;21.40;99.90;;;;;;4997992;28;20016;-62
2022/08/19 09:01:15;;;;;;;;;;;21.40;99.90;;;;;;4993243;28;20028;-62
2022/08/19 09:03:42;;;;;;;;;;;21.40;99.90;;;;;;4992751;28;19934;-63
2022/08/19 09:06:13;;;;;;;;;;;21.40;99.90;;;;;;4991415;28;19934;-62
2022/08/19 09:08:44;;;;;;;;;;;21.30;99.90;;;;;;4987174;28;19940;-62
2022/08/19 09:11:14;;;;;;;;;;;21.40;99.90;;;;;;4987040;28;20033;-62
2022/08/19 09:13:47;;;;;;;;;;;21.50;99.90;;;;;;4987694;28;20012;-63
2022/08/19 09:16:17;;;;;;;;;;;21.70;99.90;;;;;;4991228;28;20384;-63
2022/08/19 09:18:45;;;;;;;;;;;21.80;99.90;;;;;;4989188;28;19930;-62
2022/08/19 09:21:12;;;;;;;;;;;21.60;99.90;;;;;;4986897;28;19934;-62
2022/08/19 09:23:40;;;;;;;;;;;21.60;99.90;;;;;;4986891;28;19945;-61
2022/08/19 09:26:13;;;;;;;;;;;21.60;99.90;;;;;;4992858;28;20005;-61
2022/08/19 09:28:43;;;;;;;;;;;21.70;99.90;;;;;;4989056;28;20303;-61
2022/08/19 09:31:10;;;;;;;;;;;21.80;99.90;;;;;;4989250;28;19977;-61
2022/08/19 09:33:38;;;;;;;;;;;21.90;99.90;;;;;;4990860;28;19934;-61
2022/08/19 09:36:06;;;;;;;;;;;22.10;99.90;;;;;;4995134;28;19927;-63
2022/08/19 09:38:33;;;;;;;;;;;22.20;99.90;;;;;;4990452;28;19933;-64
2022/08/19 09:41:04;;;;;;;;;;;22.10;99.90;;;;;;4987674;28;20033;-64
2022/08/19 09:43:31;;;;;;;;;;;22.10;99.90;;;;;;4994308;28;19930;-64
2022/08/19 09:45:58;;;;;;;;;;;22.10;99.90;;;;;;4991403;28;19930;-63
2022/08/19 09:48:24;;;;;;;;;;;22.10;99.90;;;;;;4994451;28;19940;-64
2022/08/19 09:50:52;;;;;;;;;;;22.10;99.90;;;;;;4989941;28;19940;-64
2022/08/19 09:53:22;;;;;;;;;;;22.10;99.90;;;;;;4990467;28;20480;-67
2022/08/19 09:55:49;;;;;;;;;;;22.00;99.90;;;;;;4989980;28;19925;-63
2022/08/19 09:58:15;;;;;;;;;;;21.90;99.90;;;;;;4991079;28;20076;-63
2022/08/19 10:00:42;;;;;;;;;;;22.00;99.90;;;;;;4990165;28;20553;-63
2022/08/19 10:03:09;;;;;;;;;;;21.90;99.90;;;;;;4988996;28;19940;-63
2022/08/19 10:05:50;;;;;;;;;;;22.10;99.90;;;;;;4989302;28;20010;-63
2022/08/19 10:08:20;;;;;;;;;;;22.20;99.90;;;;;;4989669;28;20024;-63
2022/08/19 10:10:47;;;;;;;;;;;22.20;99.90;;;;;;4989533;28;20022;-62
2022/08/19 10:13:14;;;;;;;;;;;22.20;99.90;;;;;;4990819;28;19932;-62
2022/08/19 10:15:41;;;;;;;;;;;22.20;99.90;;;;;;4989303;28;20322;-62
2022/08/19 10:18:08;;;;;;;;;;;22.30;99.90;;;;;;4986847;28;19930;-62
2022/08/19 10:20:36;;;;;;;;;;;22.40;99.90;;;;;;4988393;28;20024;-63
2022/08/19 10:23:03;;;;;;;;;;;22.50;99.90;;;;;;4989439;28;20311;-63
2022/08/19 10:25:33;;;;;;;;;;;22.50;99.90;;;;;;4986530;28;20036;-63
2022/08/19 10:28:00;;;;;;;;;;;22.40;99.90;;;;;;4986109;28;19937;-62
2022/08/19 10:30:27;;;;;;;;;;;22.60;99.90;;;;;;4988756;28;20029;-62
2022/08/19 10:32:54;;;;;;;;;;;22.60;99.90;;;;;;4992621;28;19982;-63
2022/08/19 10:35:20;;;;;;;;;;;22.50;99.90;;;;;;4990462;28;20488;-63
2022/08/19 10:37:47;;;;;;;;;;;22.60;99.90;;;;;;4990458;28;19925;-63
2022/08/19 10:40:14;;;;;;;;;;;22.50;99.90;;;;;;4988567;28;20372;-63
2022/08/19 10:42:43;;;;;;;;;;;22.50;99.90;;;;;;4990680;28;19932;-63
2022/08/19 10:45:10;;;;;;;;;;;22.40;99.90;;;;;;4989400;28;19925;-64
2022/08/19 10:47:37;;;;;;;;;;;22.30;99.90;;;;;;4993604;28;19929;-63
2022/08/19 10:52:50;;;;;;;;;;;22.40;99.90;;;;;;4991019;28;19949;-64
2022/08/19 10:58:03;;;;;;;;;;;22.40;99.90;;;;;;4991693;28;20002;-63
2022/08/19 11:00:30;;;;;;;;;;;22.20;99.90;;;;;;4992345;28;20373;-64
2022/08/19 11:02:57;;;;;;;;;;;22.20;99.90;;;;;;4993983;28;20070;-63
2022/08/19 11:05:24;;;;;;;;;;;22.10;99.90;;;;;;4992133;28;20032;-64
2022/08/19 11:07:51;;;;;;;;;;;22.10;99.90;;;;;;4986186;28;19940;-64
2022/08/19 11:10:18;;;;;;;;;;;22.20;99.90;;;;;;4988869;28;19945;-64
2022/08/19 11:12:46;;;;;;;;;;;22.20;99.90;;;;;;4989195;28;19925;-63
2022/08/19 11:15:14;;;;;;;;;;;22.20;99.90;;;;;;4988821;28;19933;-64
2022/08/19 11:17:42;;;;;;;;;;;22.20;99.90;;;;;;4988919;28;19925;-64
2022/08/19 11:20:09;;;;;;;;;;;22.00;99.90;;;;;;4987656;28;20994;-64
2022/08/19 11:22:36;;;;;;;;;;;22.00;99.90;;;;;;4988027;28;20321;-62
2022/08/19 11:25:04;;;;;;;;;;;22.00;99.90;;;;;;4987678;28;20172;-63
2022/08/19 11:27:30;;;;;;;;;;;22.20;99.90;;;;;;4986656;28;19933;-63
2022/08/19 11:29:57;;;;;;;;;;;22.50;99.90;;;;;;4986676;28;20561;-63
2022/08/19 11:32:25;;;;;;;;;;;22.70;99.90;;;;;;4992094;28;20028;-63
2022/08/19 11:34:52;;;;;;;;;;;22.80;99.90;;;;;;4990691;28;19933;-63
2022/08/19 11:37:19;;;;;;;;;;;23.00;99.90;;;;;;4990876;28;20020;-63
2022/08/19 11:39:46;;;;;;;;;;;23.20;99.90;;;;;;4989026;28;20352;-64
2022/08/19 11:44:57;;;;;;;;;;;23.80;99.90;;;;;;4987859;28;19941;-64
2022/08/19 11:47:24;;;;;;;;;;;24.40;99.90;;;;;;4989411;28;19926;-64
2022/08/19 11:49:52;;;;;;;;;;;24.80;99.90;;;;;;4990749;28;20110;-63
2022/08/19 11:52:19;;;;;;;;;;;25.10;99.90;;;;;;4987335;28;19929;-64
2022/08/19 11:54:46;;;;;;;;;;;25.20;99.90;;;;;;4985405;28;19925;-64
2022/08/19 11:57:14;;;;;;;;;;;25.20;99.90;;;;;;4987782;28;20340;-64
2022/08/19 11:59:41;;;;;;;;;;;25.20;99.90;;;;;;4984134;28;19938;-63
2022/08/19 12:02:08;;;;;;;;;;;25.40;99.90;;;;;;4990467;28;20019;-64
2022/08/19 12:04:35;;;;;;;;;;;25.40;99.90;;;;;;4990781;28;20552;-64
2022/08/19 12:07:04;;;;;;;;;;;25.40;99.90;;;;;;4990408;28;19959;-63
2022/08/19 12:09:31;;;;;;;;;;;25.60;99.90;;;;;;4991303;28;20033;-63
2022/08/19 12:11:59;;;;;;;;;;;25.60;99.90;;;;;;4990975;28;19934;-63
2022/08/19 12:14:27;;;;;;;;;;;25.00;99.90;;;;;;4987929;28;19964;-64
2022/08/19 12:16:54;;;;;;;;;;;24.80;99.90;;;;;;4989466;28;19930;-64
2022/08/19 12:19:21;;;;;;;;;;;24.80;99.90;;;;;;4989747;28;20049;-64
2022/08/19 12:21:47;;;;;;;;;;;24.80;99.90;;;;;;4989370;28;20298;-63
2022/08/19 12:24:20;;;;;;;;;;;24.90;99.90;;;;;;4990329;28;20029;-63
2022/08/19 12:26:46;;;;;;;;;;;25.10;99.90;;;;;;4986642;28;20480;-63
2022/08/19 12:29:13;;;;;;;;;;;25.40;99.90;;;;;;4986411;28;20012;-64
2022/08/19 12:31:40;;;;;;;;;;;25.40;99.90;;;;;;4985994;28;19961;-64
2022/08/19 12:34:07;;;;;;;;;;;25.60;99.90;;;;;;4986679;28;19934;-63
2022/08/19 12:36:34;;;;;;;;;;;25.50;99.90;;;;;;4987811;28;19933;-63
2022/08/19 12:39:01;;;;;;;;;;;25.40;99.90;;;;;;4987515;28;20030;-63
2022/08/19 12:41:29;;;;;;;;;;;25.30;99.90;;;;;;4986436;28;19933;-63
2022/08/19 12:43:55;;;;;;;;;;;25.00;99.90;;;;;;4987796;28;20200;-64
2022/08/19 12:46:22;;;;;;;;;;;24.70;99.90;;;;;;4985996;28;19937;-61
2022/08/19 12:48:49;;;;;;;;;;;24.60;99.90;;;;;;4985746;28;20448;-64
2022/08/19 12:51:17;;;;;;;;;;;24.60;99.90;;;;;;4985029;28;19938;-64
2022/08/19 12:53:44;;;;;;;;;;;24.70;99.90;;;;;;4988037;28;19965;-64
2022/08/19 12:56:12;;;;;;;;;;;24.80;99.90;;;;;;4987781;28;19933;-64
2022/08/19 12:58:41;;;;;;;;;;;24.90;99.90;;;;;;4989668;28;19980;-64
2022/08/19 13:01:10;;;;;;;;;;;25.10;99.90;;;;;;4987038;28;20472;-64
2022/08/19 13:03:37;;;;;;;;;;;25.10;99.90;;;;;;4989333;28;19933;-62
2022/08/19 13:06:04;;;;;;;;;;;25.30;99.90;;;;;;4987083;28;20513;-64
2022/08/19 13:08:30;;;;;;;;;;;25.60;99.90;;;;;;4991191;28;20365;-63
2022/08/19 13:10:57;;;;;;;;;;;25.80;99.90;;;;;;4999357;28;20300;-63
2022/08/19 13:13:25;;;;;;;;;;;26.20;99.90;;;;;;4989163;28;19940;-64
2022/08/19 13:16:01;;;;;;;;;;;26.20;99.90;;;;;;4985915;28;19979;-63
2022/08/19 13:18:28;;;;;;;;;;;26.10;99.90;;;;;;4987757;28;19929;-63
2022/08/19 13:20:56;;;;;;;;;;;25.80;99.90;;;;;;4986755;28;19937;-64
2022/08/19 13:23:22;;;;;;;;;;;25.70;99.90;;;;;;4985548;28;20002;-64
2022/08/19 13:25:56;;;;;;;;;;;25.60;99.90;;;;;;4984301;28;19937;-64
2022/08/19 13:28:23;;;;;;;;;;;25.40;99.90;;;;;;4987241;28;19934;-64
2022/08/19 13:33:35;;;;;;;;;;;25.40;99.90;;;;;;4985292;28;20030;-64
2022/08/19 13:36:01;;;;;;;;;;;25.40;99.90;;;;;;4986321;28;19929;-63
2022/08/19 13:38:30;;;;;;;;;;;25.70;99.90;;;;;;4990443;28;20088;-62
2022/08/19 13:40:56;;;;;;;;;;;25.90;99.90;;;;;;4989541;28;19925;-63
2022/08/19 13:43:24;;;;;;;;;;;26.30;99.90;;;;;;4988406;28;19937;-63
2022/08/19 13:45:52;;;;;;;;;;;26.00;99.90;;;;;;4986106;28;19939;-63
2022/08/19 13:48:19;;;;;;;;;;;25.80;99.90;;;;;;4987905;28;19933;-62
2022/08/19 13:50:47;;;;;;;;;;;25.50;99.90;;;;;;4988889;28;20038;-63
2022/08/19 13:53:14;;;;;;;;;;;25.30;99.90;;;;;;4987767;28;20819;-63
2022/08/19 13:55:41;;;;;;;;;;;25.50;99.90;;;;;;4987053;28;19930;-63
2022/08/19 13:58:10;;;;;;;;;;;25.80;99.90;;;;;;4986898;28;20425;-63
2022/08/19 14:00:37;;;;;;;;;;;26.00;99.90;;;;;;4984920;28;19974;-63
2022/08/19 14:03:04;;;;;;;;;;;25.90;99.90;;;;;;4985726;28;20304;-62
2022/08/19 14:05:31;;;;;;;;;;;25.90;99.90;;;;;;4984489;28;19929;-63
2022/08/19 14:07:59;;;;;;;;;;;26.00;99.90;;;;;;4991109;28;19926;-64
2022/08/19 14:10:27;;;;;;;;;;;26.40;99.90;;;;;;4997086;28;19926;-63
2022/08/19 14:12:55;;;;;;;;;;;26.00;99.90;;;;;;4999007;28;19974;-63
2022/08/19 14:15:22;;;;;;;;;;;25.90;99.90;;;;;;5008331;28;19926;-62
2022/08/19 14:17:49;;;;;;;;;;;25.50;99.90;;;;;;5000283;28;20291;-63
2022/08/19 14:20:16;;;;;;;;;;;25.30;99.90;;;;;;5002345;28;19930;-63
2022/08/19 14:22:43;;;;;;;;;;;25.10;99.90;;;;;;5000711;28;21528;-63
2022/08/19 14:25:13;;;;;;;;;;;25.10;99.90;;;;;;5001658;28;19936;-62
2022/08/19 14:27:40;;;;;;;;;;;24.90;99.90;;;;;;5002889;28;20803;-63
2022/08/19 14:30:08;;;;;;;;;;;24.90;99.90;;;;;;5000951;28;19926;-63
2022/08/19 14:32:35;;;;;;;;;;;24.90;99.90;;;;;;5002810;28;19943;-64
2022/08/19 14:35:01;;;;;;;;;;;25.10;99.90;;;;;;5007578;28;19940;-62
2022/08/19 14:37:28;;;;;;;;;;;25.00;99.90;;;;;;5007194;28;19937;-62
2022/08/19 14:39:55;;;;;;;;;;;24.80;99.90;;;;;;4999834;28;20530;-61
2022/08/19 14:42:23;;;;;;;;;;;24.70;99.90;;;;;;4998395;28;20298;-62
2022/08/19 14:44:50;;;;;;;;;;;24.60;99.90;;;;;;5006961;28;20020;-62
2022/08/19 14:47:16;;;;;;;;;;;24.40;99.90;;;;;;5009024;28;20029;-64
2022/08/19 14:49:43;;;;;;;;;;;24.30;99.90;;;;;;5007553;28;19932;-64
2022/08/19 14:52:10;;;;;;;;;;;24.30;99.90;;;;;;5008905;28;20368;-64
2022/08/19 14:54:37;;;;;;;;;;;24.20;99.90;;;;;;5007899;28;20070;-63
2022/08/19 14:57:04;;;;;;;;;;;24.30;99.90;;;;;;5001424;28;20015;-63
2022/08/19 14:59:32;;;;;;;;;;;24.60;99.90;;;;;;5006221;28;19934;-64